Time;durP1;ratioP1;P1;durP2;ratioP2;P2;SDS_P1;SDS_P2;PMS_P1;PMS_P2;Temp;Humidity;BMP_temperature;BMP_pressure;BME280_temperature;BME280_humidity;BME280_pressure;Samples;Min_cycle;Max_cycle;Signal;HPM_P1;HPM_P2
2021/08/06 00:00:52;;;;;;;4.13;0.82;;;;;;;;;;4990388;28;20034;-68
2021/08/06 00:03:19;;;;;;;5.25;1.00;;;;;;;;;;4985676;28;20073;-69
2021/08/06 00:05:46;;;;;;;3.40;0.70;;;;;;;;;;4993287;28;20026;-68
2021/08/06 00:08:13;;;;;;;2.55;0.70;;;;;;;;;;4986054;28;20023;-68
2021/08/06 00:10:40;;;;;;;1.25;0.45;;;;;;;;;;4992011;28;20019;-69
2021/08/06 00:13:07;;;;;;;1.65;0.43;;;;;;;;;;4987845;28;20018;-69
2021/08/06 00:15:35;;;;;;;3.47;0.50;;;;;;;;;;4987174;28;20058;-70
2021/08/06 00:18:02;;;;;;;1.88;0.77;;;;;;;;;;4991062;28;20081;-69
2021/08/06 00:20:29;;;;;;;1.17;0.55;;;;;;;;;;4990011;28;20475;-68
2021/08/06 00:22:56;;;;;;;1.30;0.43;;;;;;;;;;4991332;28;20117;-68
2021/08/06 00:25:24;;;;;;;3.45;0.50;;;;;;;;;;4992033;28;20026;-69
2021/08/06 00:27:51;;;;;;;0.88;0.30;;;;;;;;;;4990922;28;20018;-69
2021/08/06 00:30:18;;;;;;;2.67;0.30;;;;;;;;;;4987857;28;20030;-69
2021/08/06 00:32:45;;;;;;;1.35;0.50;;;;;;;;;;4987385;28;20554;-67
2021/08/06 00:35:12;;;;;;;1.35;0.30;;;;;;;;;;4989342;28;20039;-68
2021/08/06 00:37:39;;;;;;;2.97;0.50;;;;;;;;;;4988767;28;20024;-70
2021/08/06 00:40:07;;;;;;;1.45;0.73;;;;;;;;;;4990452;28;20101;-67
2021/08/06 00:42:34;;;;;;;2.65;0.40;;;;;;;;;;4990919;28;20043;-68
2021/08/06 00:45:01;;;;;;;1.65;0.40;;;;;;;;;;4993344;28;20038;-69
2021/08/06 00:47:29;;;;;;;2.70;0.50;;;;;;;;;;4990320;28;20034;-66
2021/08/06 00:49:56;;;;;;;1.73;0.20;;;;;;;;;;4990044;28;20076;-68
2021/08/06 00:52:23;;;;;;;2.22;0.40;;;;;;;;;;4991459;28;20022;-69
2021/08/06 00:54:51;;;;;;;0.60;0.30;;;;;;;;;;4992501;28;20510;-68
2021/08/06 00:57:18;;;;;;;1.35;0.52;;;;;;;;;;4989054;28;20029;-68
2021/08/06 00:59:45;;;;;;;1.80;0.40;;;;;;;;;;4990050;28;20545;-68
2021/08/06 01:02:19;;;;;;;2.40;0.75;;;;;;;;;;4986479;28;20031;-69
2021/08/06 01:05:04;;;;;;;4.47;2.40;;;;;;;;;;4981570;28;20442;-68
2021/08/06 01:07:43;;;;;;;1.60;0.98;;;;;;;;;;4984263;28;22196;-69
2021/08/06 01:10:12;;;;;;;1.15;0.40;;;;;;;;;;4988621;28;20057;-70
2021/08/06 01:12:48;;;;;;;3.63;0.32;;;;;;;;;;4980688;28;20022;-68
2021/08/06 01:15:16;;;;;;;4.70;1.20;;;;;;;;;;4994219;28;20503;-68
2021/08/06 01:17:45;;;;;;;2.83;0.40;;;;;;;;;;4981069;28;20023;-68
2021/08/06 01:20:14;;;;;;;0.90;0.40;;;;;;;;;;4980851;28;20396;-69
2021/08/06 01:22:53;;;;;;;2.28;1.05;;;;;;;;;;4985039;28;20034;-67
2021/08/06 01:25:40;;;;;;;2.00;0.80;;;;;;;;;;4992895;28;20553;-68
2021/08/06 01:28:07;;;;;;;2.40;0.50;;;;;;;;;;5001680;28;20030;-68
2021/08/06 01:30:35;;;;;;;1.75;0.50;;;;;;;;;;5012284;28;20018;-69
2021/08/06 01:33:02;;;;;;;1.00;0.28;;;;;;;;;;4994114;28;20019;-69
2021/08/06 01:35:29;;;;;;;0.98;0.20;;;;;;;;;;4991559;28;20074;-69
2021/08/06 01:37:56;;;;;;;0.65;0.30;;;;;;;;;;5000259;28;20105;-68
2021/08/06 01:40:23;;;;;;;0.73;0.40;;;;;;;;;;4992363;28;20022;-70
2021/08/06 01:42:57;;;;;;;1.42;0.30;;;;;;;;;;4997356;28;20022;-68
2021/08/06 01:45:27;;;;;;;1.03;0.30;;;;;;;;;;4996866;28;20478;-73
2021/08/06 01:47:55;;;;;;;2.63;0.40;;;;;;;;;;4993802;28;20085;-68
2021/08/06 01:50:30;;;;;;;1.45;0.20;;;;;;;;;;4999932;28;20022;-70
2021/08/06 01:53:02;;;;;;;0.90;0.22;;;;;;;;;;4991296;28;20042;-69
2021/08/06 01:55:33;;;;;;;0.50;0.30;;;;;;;;;;4991495;28;20077;-68
2021/08/06 01:58:02;;;;;;;2.03;0.20;;;;;;;;;;4987285;28;20050;-68
2021/08/06 02:00:29;;;;;;;0.60;0.10;;;;;;;;;;4992362;28;20018;-68
2021/08/06 02:02:57;;;;;;;0.90;0.50;;;;;;;;;;4991177;28;20037;-69
2021/08/06 02:05:25;;;;;;;1.33;0.65;;;;;;;;;;4992222;28;20514;-68
2021/08/06 02:07:52;;;;;;;2.13;0.30;;;;;;;;;;4990919;28;20398;-70
2021/08/06 02:10:20;;;;;;;0.65;0.40;;;;;;;;;;4988036;28;20036;-69
2021/08/06 02:12:50;;;;;;;2.33;0.45;;;;;;;;;;4984474;28;20026;-68
2021/08/06 02:15:17;;;;;;;2.15;0.40;;;;;;;;;;4984718;28;20093;-67
2021/08/06 02:17:45;;;;;;;0.77;0.30;;;;;;;;;;4989031;28;20113;-68
2021/08/06 02:20:13;;;;;;;0.90;0.30;;;;;;;;;;4986173;28;20035;-68
2021/08/06 02:22:43;;;;;;;0.82;0.20;;;;;;;;;;4987204;28;20407;-69
2021/08/06 02:25:11;;;;;;;0.35;0.20;;;;;;;;;;4991529;28;20121;-68
2021/08/06 02:27:38;;;;;;;3.47;0.40;;;;;;;;;;4987191;28;20030;-68
2021/08/06 02:30:06;;;;;;;1.58;0.30;;;;;;;;;;4987848;28;20036;-70
2021/08/06 02:32:33;;;;;;;0.57;0.30;;;;;;;;;;5001931;28;20030;-69
2021/08/06 02:35:01;;;;;;;1.15;0.60;;;;;;;;;;4984867;28;20031;-71
2021/08/06 02:37:28;;;;;;;2.00;0.30;;;;;;;;;;4988374;28;20066;-70
2021/08/06 02:39:55;;;;;;;1.23;0.40;;;;;;;;;;4989356;28;20022;-68
2021/08/06 02:42:22;;;;;;;0.60;0.28;;;;;;;;;;4986982;28;20539;-69
2021/08/06 02:44:49;;;;;;;2.15;0.30;;;;;;;;;;4986919;28;20034;-69
2021/08/06 02:47:16;;;;;;;2.05;0.30;;;;;;;;;;4982473;28;20081;-69
2021/08/06 02:49:43;;;;;;;1.00;0.25;;;;;;;;;;4984036;28;20471;-69
2021/08/06 02:52:11;;;;;;;1.63;0.50;;;;;;;;;;4987469;28;20109;-70
2021/08/06 02:54:38;;;;;;;5.32;1.20;;;;;;;;;;4992740;28;20042;-68
2021/08/06 02:57:05;;;;;;;3.03;0.65;;;;;;;;;;4995518;28;20128;-68
2021/08/06 02:59:32;;;;;;;3.92;0.50;;;;;;;;;;4994473;28;20502;-68
2021/08/06 03:01:59;;;;;;;2.90;0.65;;;;;;;;;;4996268;28;20030;-67
2021/08/06 03:04:26;;;;;;;0.52;0.30;;;;;;;;;;4990595;28;20541;-67
2021/08/06 03:06:54;;;;;;;1.30;0.20;;;;;;;;;;4991602;28;20037;-67
2021/08/06 03:09:21;;;;;;;0.30;0.28;;;;;;;;;;4996333;28;22032;-71
2021/08/06 03:11:48;;;;;;;2.13;0.47;;;;;;;;;;5009427;28;20030;-69
2021/08/06 03:14:15;;;;;;;1.15;0.40;;;;;;;;;;5006852;28;20026;-68
2021/08/06 03:16:42;;;;;;;1.65;0.60;;;;;;;;;;4990714;28;20496;-69
2021/08/06 03:19:09;;;;;;;1.00;0.40;;;;;;;;;;5006161;28;20034;-69
2021/08/06 03:21:36;;;;;;;2.70;0.30;;;;;;;;;;5003650;28;20154;-68
2021/08/06 03:24:04;;;;;;;1.33;0.30;;;;;;;;;;5019201;28;20116;-67
2021/08/06 03:26:31;;;;;;;1.27;0.52;;;;;;;;;;4994746;28;20040;-67
2021/08/06 03:28:58;;;;;;;2.45;0.50;;;;;;;;;;5008696;28;20019;-68
2021/08/06 03:31:25;;;;;;;0.55;0.20;;;;;;;;;;4990402;28;20387;-67
2021/08/06 03:33:52;;;;;;;3.92;0.40;;;;;;;;;;4995770;28;20034;-68
2021/08/06 03:36:19;;;;;;;0.65;0.20;;;;;;;;;;5011285;28;20033;-68
2021/08/06 03:38:46;;;;;;;1.00;0.30;;;;;;;;;;4993413;28;20439;-69
2021/08/06 03:41:14;;;;;;;2.40;0.38;;;;;;;;;;4990765;28;20114;-68
2021/08/06 03:43:41;;;;;;;1.25;0.40;;;;;;;;;;4976739;28;20034;-69
2021/08/06 03:46:08;;;;;;;3.10;0.73;;;;;;;;;;4979619;28;20403;-69
2021/08/06 03:48:35;;;;;;;0.55;0.30;;;;;;;;;;4990889;28;20062;-69
2021/08/06 03:51:02;;;;;;;2.83;0.50;;;;;;;;;;4987877;28;20053;-69
2021/08/06 03:53:29;;;;;;;3.42;0.40;;;;;;;;;;4993297;28;20057;-69
2021/08/06 03:55:56;;;;;;;1.92;0.85;;;;;;;;;;4994668;28;20030;-69
2021/08/06 03:58:23;;;;;;;0.68;0.20;;;;;;;;;;4993589;28;20030;-67
2021/08/06 04:00:50;;;;;;;0.82;0.28;;;;;;;;;;4990789;28;20080;-69
2021/08/06 04:03:18;;;;;;;3.88;0.30;;;;;;;;;;4993010;28;20494;-68
2021/08/06 04:05:45;;;;;;;1.17;0.40;;;;;;;;;;4994264;28;20026;-69
2021/08/06 04:08:12;;;;;;;3.22;0.25;;;;;;;;;;4991957;28;20039;-68
2021/08/06 04:10:39;;;;;;;1.40;0.30;;;;;;;;;;4993979;28;20430;-69
2021/08/06 04:13:06;;;;;;;1.40;0.20;;;;;;;;;;4991789;28;20055;-67
2021/08/06 04:15:33;;;;;;;1.40;0.20;;;;;;;;;;4992116;28;20609;-68
2021/08/06 04:18:01;;;;;;;0.20;0.10;;;;;;;;;;4990819;28;20036;-67
2021/08/06 04:20:28;;;;;;;0.30;0.10;;;;;;;;;;4996724;28;20498;-67
2021/08/06 04:22:55;;;;;;;1.38;0.30;;;;;;;;;;4992822;28;20479;-68
2021/08/06 04:25:22;;;;;;;1.33;0.20;;;;;;;;;;5009491;28;20391;-69
2021/08/06 04:27:49;;;;;;;1.65;0.30;;;;;;;;;;4990470;28;20395;-68
2021/08/06 04:30:16;;;;;;;2.35;0.40;;;;;;;;;;5006613;28;20030;-68
2021/08/06 04:32:45;;;;;;;1.73;0.43;;;;;;;;;;4990257;28;20024;-68
2021/08/06 04:35:12;;;;;;;2.95;0.50;;;;;;;;;;4986394;28;20234;-67
2021/08/06 04:37:49;;;;;;;1.95;0.45;;;;;;;;;;5002140;28;20030;-69
2021/08/06 04:40:16;;;;;;;2.55;0.25;;;;;;;;;;4986826;28;20026;-68
2021/08/06 04:42:44;;;;;;;1.85;0.22;;;;;;;;;;5007473;28;20574;-68
2021/08/06 04:45:11;;;;;;;2.35;0.77;;;;;;;;;;4990881;28;20030;-67
2021/08/06 04:47:48;;;;;;;3.10;0.95;;;;;;;;;;4992745;28;20073;-69
2021/08/06 04:50:16;;;;;;;1.17;0.30;;;;;;;;;;4993720;28;20084;-70
2021/08/06 04:52:44;;;;;;;1.83;0.40;;;;;;;;;;4992163;28;20065;-69
2021/08/06 04:55:11;;;;;;;3.38;0.85;;;;;;;;;;4993671;28;20038;-68
2021/08/06 04:57:39;;;;;;;2.97;0.43;;;;;;;;;;4986917;28;20026;-68
2021/08/06 05:00:07;;;;;;;1.13;0.52;;;;;;;;;;4976811;28;20073;-68
2021/08/06 05:02:34;;;;;;;2.63;0.60;;;;;;;;;;4984201;28;20024;-68
2021/08/06 05:05:02;;;;;;;4.00;0.40;;;;;;;;;;4991371;28;20062;-68
2021/08/06 05:07:30;;;;;;;0.90;0.40;;;;;;;;;;4986922;28;20022;-67
2021/08/06 05:09:57;;;;;;;1.42;0.20;;;;;;;;;;4990400;28;20022;-68
2021/08/06 05:12:24;;;;;;;1.92;0.30;;;;;;;;;;4989667;28;20045;-68
2021/08/06 05:14:51;;;;;;;2.30;0.65;;;;;;;;;;4990441;28;20709;-67
2021/08/06 05:17:18;;;;;;;2.65;0.47;;;;;;;;;;4987635;28;20031;-67
2021/08/06 05:19:46;;;;;;;1.98;1.10;;;;;;;;;;4989731;28;20028;-67
2021/08/06 05:22:13;;;;;;;0.82;0.40;;;;;;;;;;4989465;28;20025;-69
2021/08/06 05:24:40;;;;;;;2.75;0.50;;;;;;;;;;5005725;28;20053;-68
2021/08/06 05:27:08;;;;;;;2.17;0.52;;;;;;;;;;4990227;28;20022;-67
2021/08/06 05:29:35;;;;;;;12.75;6.30;;;;;;;;;;4991045;28;20026;-68
2021/08/06 05:32:02;;;;;;;21.70;10.82;;;;;;;;;;4990037;28;20383;-68
2021/08/06 05:34:29;;;;;;;7.80;4.90;;;;;;;;;;4986593;28;20054;-68
2021/08/06 05:36:56;;;;;;;5.03;1.05;;;;;;;;;;4988228;28;20042;-69
2021/08/06 05:39:23;;;;;;;1.75;0.60;;;;;;;;;;5002607;28;20038;-69
2021/08/06 05:41:50;;;;;;;2.25;0.50;;;;;;;;;;4989042;28;20026;-68
2021/08/06 05:44:17;;;;;;;1.35;0.38;;;;;;;;;;4988037;28;20027;-68
2021/08/06 05:46:45;;;;;;;3.85;0.40;;;;;;;;;;4989139;28;20152;-68
2021/08/06 05:49:12;;;;;;;1.75;0.38;;;;;;;;;;4991751;28;20529;-68
2021/08/06 05:51:39;;;;;;;1.20;1.02;;;;;;;;;;4989840;28;20027;-68
2021/08/06 05:54:06;;;;;;;6.00;0.82;;;;;;;;;;4988312;28;20047;-68
2021/08/06 05:56:33;;;;;;;2.60;0.77;;;;;;;;;;4990446;28;20505;-68
2021/08/06 05:59:00;;;;;;;7.40;0.60;;;;;;;;;;4990091;28;20033;-68
2021/08/06 06:01:27;;;;;;;3.30;0.50;;;;;;;;;;4989600;28;20060;-68
2021/08/06 06:03:57;;;;;;;4.40;0.75;;;;;;;;;;4990353;28;20037;-68
2021/08/06 06:06:24;;;;;;;0.45;0.22;;;;;;;;;;4990284;28;20353;-67
2021/08/06 06:08:51;;;;;;;3.42;0.40;;;;;;;;;;4987330;28;20390;-67
2021/08/06 06:11:19;;;;;;;2.15;0.52;;;;;;;;;;4987387;28;20165;-68
2021/08/06 06:13:47;;;;;;;1.98;0.60;;;;;;;;;;4990072;28;20505;-67
2021/08/06 06:16:14;;;;;;;1.67;0.30;;;;;;;;;;4988641;28;20018;-68
2021/08/06 06:18:42;;;;;;;1.75;0.50;;;;;;;;;;4987901;28;20483;-68
2021/08/06 06:21:10;;;;;;;0.60;0.30;;;;;;;;;;4990201;28;20124;-67
2021/08/06 06:23:38;;;;;;;0.80;0.20;;;;;;;;;;4988674;28;20126;-68
2021/08/06 06:26:06;;;;;;;1.23;0.25;;;;;;;;;;4991450;28;20050;-68
2021/08/06 06:28:33;;;;;;;1.42;0.40;;;;;;;;;;4990579;28;20030;-68
2021/08/06 06:31:01;;;;;;;3.20;0.60;;;;;;;;;;4989396;28;20374;-68
2021/08/06 06:33:28;;;;;;;2.53;0.40;;;;;;;;;;4984756;28;20026;-67
2021/08/06 06:35:55;;;;;;;1.00;0.40;;;;;;;;;;4989865;28;20089;-68
2021/08/06 06:38:22;;;;;;;3.30;0.32;;;;;;;;;;4989748;28;20130;-67
2021/08/06 06:40:50;;;;;;;1.75;0.40;;;;;;;;;;4991506;28;20029;-68
2021/08/06 06:43:17;;;;;;;1.73;0.40;;;;;;;;;;4985959;28;20967;-67
2021/08/06 06:45:44;;;;;;;2.55;0.65;;;;;;;;;;4990498;28;20376;-68
2021/08/06 06:48:11;;;;;;;1.58;0.55;;;;;;;;;;4989580;28;20069;-67
2021/08/06 06:50:39;;;;;;;1.92;0.47;;;;;;;;;;4987039;28;20418;-68
2021/08/06 06:53:06;;;;;;;1.13;0.50;;;;;;;;;;4987169;28;20078;-68
2021/08/06 06:55:33;;;;;;;3.30;0.50;;;;;;;;;;4989806;28;20114;-68
2021/08/06 06:58:00;;;;;;;2.85;0.50;;;;;;;;;;4989183;28;20057;-67
2021/08/06 07:00:29;;;;;;;3.50;0.80;;;;;;;;;;4989246;28;20029;-67
2021/08/06 07:02:57;;;;;;;4.40;0.93;;;;;;;;;;4990558;28;20034;-68
2021/08/06 07:05:24;;;;;;;2.20;0.70;;;;;;;;;;4992011;28;20029;-68
2021/08/06 07:07:51;;;;;;;2.15;0.82;;;;;;;;;;4989946;28;20030;-68
2021/08/06 07:10:19;;;;;;;3.42;1.33;;;;;;;;;;4989634;28;20562;-68
2021/08/06 07:12:46;;;;;;;3.63;1.70;;;;;;;;;;4990598;28;20022;-69
2021/08/06 07:15:14;;;;;;;1.52;0.93;;;;;;;;;;4996100;28;20026;-69
2021/08/06 07:17:41;;;;;;;2.85;1.35;;;;;;;;;;4989364;28;20026;-67
2021/08/06 07:20:10;;;;;;;2.72;1.02;;;;;;;;;;4992514;28;20037;-67
2021/08/06 07:22:38;;;;;;;1.98;1.20;;;;;;;;;;4991624;28;20027;-68
2021/08/06 07:25:06;;;;;;;4.40;1.27;;;;;;;;;;4992761;28;20034;-67
2021/08/06 07:27:34;;;;;;;1.40;0.88;;;;;;;;;;4990156;28;20025;-67
2021/08/06 07:30:01;;;;;;;1.95;1.10;;;;;;;;;;4989608;28;20100;-67
2021/08/06 07:32:28;;;;;;;4.47;1.92;;;;;;;;;;4985880;28;20026;-68
2021/08/06 07:34:55;;;;;;;4.20;1.30;;;;;;;;;;4993774;28;20145;-68
2021/08/06 07:37:22;;;;;;;5.57;1.88;;;;;;;;;;5004263;28;20038;-68
2021/08/06 07:39:49;;;;;;;5.43;3.72;;;;;;;;;;4991953;28;20166;-67
2021/08/06 07:42:17;;;;;;;9.68;3.42;;;;;;;;;;4985363;28;20372;-68
2021/08/06 07:44:44;;;;;;;7.70;4.22;;;;;;;;;;4990930;28;20065;-67
2021/08/06 07:47:11;;;;;;;7.05;2.67;;;;;;;;;;4992942;28;20101;-67
2021/08/06 07:49:41;;;;;;;6.22;3.38;;;;;;;;;;4989613;28;20029;-68
2021/08/06 07:52:09;;;;;;;7.43;2.80;;;;;;;;;;4989197;28;20018;-68
2021/08/06 07:54:36;;;;;;;4.38;2.80;;;;;;;;;;4991955;28;20113;-68
2021/08/06 07:57:04;;;;;;;6.20;2.30;;;;;;;;;;4991265;28;20488;-68
2021/08/06 07:59:31;;;;;;;6.53;2.78;;;;;;;;;;4989726;28;20034;-68
2021/08/06 08:01:58;;;;;;;8.77;3.03;;;;;;;;;;4988776;28;20487;-66
2021/08/06 08:04:25;;;;;;;6.63;3.03;;;;;;;;;;4993993;28;20031;-67
2021/08/06 08:06:52;;;;;;;8.77;4.32;;;;;;;;;;4990967;28;20022;-68
2021/08/06 08:09:19;;;;;;;9.52;3.78;;;;;;;;;;4993734;28;20440;-68
2021/08/06 08:11:46;;;;;;;9.63;4.60;;;;;;;;;;4992982;28;20042;-69
2021/08/06 08:14:13;;;;;;;5.75;3.90;;;;;;;;;;4993896;28;20555;-67
2021/08/06 08:16:41;;;;;;;7.28;4.75;;;;;;;;;;4992883;28;20080;-68
2021/08/06 08:19:08;;;;;;;10.93;5.07;;;;;;;;;;4991991;28;20502;-67
2021/08/06 08:21:35;;;;;;;7.22;4.72;;;;;;;;;;4990151;28;20388;-67
2021/08/06 08:24:02;;;;;;;10.32;5.53;;;;;;;;;;4991548;28;20150;-67
2021/08/06 08:26:29;;;;;;;9.60;5.45;;;;;;;;;;4989762;28;20042;-66
2021/08/06 08:28:56;;;;;;;8.02;4.53;;;;;;;;;;4989214;28;20022;-67
2021/08/06 08:31:23;;;;;;;13.25;5.22;;;;;;;;;;4991625;28;20037;-67
2021/08/06 08:33:51;;;;;;;12.73;5.45;;;;;;;;;;4991860;28;20034;-69
2021/08/06 08:36:20;;;;;;;10.10;5.30;;;;;;;;;;4992407;28;20463;-67
2021/08/06 08:38:47;;;;;;;11.43;5.47;;;;;;;;;;4993176;28;20019;-67
2021/08/06 08:41:14;;;;;;;12.43;6.78;;;;;;;;;;4991332;28;20034;-66
2021/08/06 08:43:43;;;;;;;7.10;4.97;;;;;;;;;;4991191;28;20026;-67
2021/08/06 08:46:10;;;;;;;17.70;14.95;;;;;;;;;;4992112;28;20089;-66
2021/08/06 08:48:38;;;;;;;29.80;27.00;;;;;;;;;;4990666;28;20034;-67
2021/08/06 08:51:05;;;;;;;16.25;11.50;;;;;;;;;;4992864;28;20023;-68
2021/08/06 08:53:32;;;;;;;20.52;18.00;;;;;;;;;;4989631;28;20050;-68
2021/08/06 08:55:59;;;;;;;12.38;11.10;;;;;;;;;;4986182;28;20387;-69
2021/08/06 08:58:26;;;;;;;15.68;9.50;;;;;;;;;;4990135;28;20035;-68
2021/08/06 09:00:53;;;;;;;12.90;8.80;;;;;;;;;;4993075;28;20061;-68
2021/08/06 09:03:39;;;;;;;19.13;12.75;;;;;;;;;;4991338;28;20030;-68
2021/08/06 09:06:07;;;;;;;13.88;9.90;;;;;;;;;;4992918;28;20026;-68
2021/08/06 09:08:35;;;;;;;9.23;4.03;;;;;;;;;;4991908;28;20026;-68
2021/08/06 09:11:02;;;;;;;4.13;2.53;;;;;;;;;;4992729;28;20030;-69
2021/08/06 09:13:29;;;;;;;6.85;2.78;;;;;;;;;;4991333;28;20034;-68
2021/08/06 09:16:00;;;;;;;5.82;2.45;;;;;;;;;;4991067;28;20505;-68
2021/08/06 09:18:28;;;;;;;3.85;2.20;;;;;;;;;;4990464;28;20517;-67
2021/08/06 09:20:57;;;;;;;2.75;1.70;;;;;;;;;;4992778;28;20594;-68
2021/08/06 09:23:43;;;;;;;3.92;1.98;;;;;;;;;;4987899;28;20033;-67
2021/08/06 09:26:30;;;;;;;3.75;1.90;;;;;;;;;;4988870;28;20387;-69
2021/08/06 09:29:02;;;;;;;6.05;2.17;;;;;;;;;;4983637;28;20663;-69
2021/08/06 09:31:29;;;;;;;3.13;1.52;;;;;;;;;;4988333;28;20041;-68
2021/08/06 09:34:13;;;;;;;4.32;1.38;;;;;;;;;;4990279;28;20080;-68
2021/08/06 09:36:59;;;;;;;2.67;1.40;;;;;;;;;;4989028;28;20491;-68
2021/08/06 09:39:30;;;;;;;2.58;1.77;;;;;;;;;;4991475;28;20045;-68
2021/08/06 09:41:57;;;;;;;2.95;1.50;;;;;;;;;;4991979;28;20030;-67
2021/08/06 09:44:25;;;;;;;2.75;1.50;;;;;;;;;;4991867;28;20494;-67
2021/08/06 09:46:53;;;;;;;5.22;1.35;;;;;;;;;;4990536;28;20027;-67
2021/08/06 09:49:20;;;;;;;3.53;1.80;;;;;;;;;;4989898;28;20072;-69
2021/08/06 09:51:49;;;;;;;5.22;2.08;;;;;;;;;;4987892;28;20025;-67
2021/08/06 09:54:22;;;;;;;3.67;2.13;;;;;;;;;;4991259;28;20415;-67
2021/08/06 09:56:50;;;;;;;5.60;2.78;;;;;;;;;;4985879;28;20467;-68
2021/08/06 09:59:28;;;;;;;3.97;2.58;;;;;;;;;;4989829;28;20398;-68
2021/08/06 10:02:11;;;;;;;5.85;3.33;;;;;;;;;;4976816;28;20022;-67
2021/08/06 10:04:39;;;;;;;5.28;3.28;;;;;;;;;;4999156;28;20101;-68
2021/08/06 10:07:07;;;;;;;8.07;3.67;;;;;;;;;;4989753;28;20022;-67
2021/08/06 10:09:37;;;;;;;5.40;2.95;;;;;;;;;;4989309;28;20033;-68
2021/08/06 10:12:05;;;;;;;5.07;3.40;;;;;;;;;;4988511;28;20052;-67
2021/08/06 10:14:34;;;;;;;5.90;3.47;;;;;;;;;;5006695;28;20054;-67
2021/08/06 10:17:01;;;;;;;4.45;3.03;;;;;;;;;;4985984;28;20058;-68
2021/08/06 10:19:29;;;;;;;3.90;2.85;;;;;;;;;;4991744;28;20018;-68
2021/08/06 10:21:56;;;;;;;4.88;3.17;;;;;;;;;;4988454;28;20033;-68
2021/08/06 10:24:24;;;;;;;4.85;3.10;;;;;;;;;;4992196;28;20066;-68
2021/08/06 10:26:51;;;;;;;8.13;4.75;;;;;;;;;;4988535;28;20026;-68
2021/08/06 10:29:22;;;;;;;5.07;4.13;;;;;;;;;;4991475;28;20026;-67
2021/08/06 10:32:07;;;;;;;5.80;3.80;;;;;;;;;;4992765;28;20387;-68
2021/08/06 10:34:34;;;;;;;5.55;2.85;;;;;;;;;;4994772;28;20041;-67
2021/08/06 10:37:01;;;;;;;3.97;2.40;;;;;;;;;;5012686;28;20415;-67
2021/08/06 10:39:33;;;;;;;3.80;2.15;;;;;;;;;;4995915;28;20049;-68
2021/08/06 10:42:01;;;;;;;4.00;2.13;;;;;;;;;;5007932;28;20105;-67
2021/08/06 10:44:48;;;;;;;2.85;1.70;;;;;;;;;;4996338;28;20602;-68
2021/08/06 10:47:15;;;;;;;3.55;1.40;;;;;;;;;;4976477;28;20169;-68
2021/08/06 10:49:42;;;;;;;4.38;1.48;;;;;;;;;;4996587;28;20033;-68
2021/08/06 10:52:14;;;;;;;2.47;1.20;;;;;;;;;;4996067;28;20383;-67
2021/08/06 10:54:41;;;;;;;1.58;0.90;;;;;;;;;;5013669;28;20057;-68
2021/08/06 10:57:16;;;;;;;2.63;0.98;;;;;;;;;;5015309;28;20356;-67
2021/08/06 10:59:44;;;;;;;1.48;1.13;;;;;;;;;;5013408;28;20030;-68
2021/08/06 11:02:29;;;;;;;1.67;0.90;;;;;;;;;;5009746;28;20030;-67
2021/08/06 11:04:56;;;;;;;2.20;0.95;;;;;;;;;;5004028;28;20160;-67
2021/08/06 11:07:33;;;;;;;2.15;0.90;;;;;;;;;;4996764;28;20470;-66
2021/08/06 11:10:01;;;;;;;2.15;0.95;;;;;;;;;;4980710;28;20169;-66
2021/08/06 11:12:35;;;;;;;1.95;1.10;;;;;;;;;;4993771;28;20024;-67
2021/08/06 11:15:05;;;;;;;3.25;1.40;;;;;;;;;;4997190;28;20072;-66
2021/08/06 11:17:46;;;;;;;3.42;1.35;;;;;;;;;;4995889;28;20031;-67
2021/08/06 11:20:15;;;;;;;2.42;1.38;;;;;;;;;;4990211;28;20109;-66
2021/08/06 11:22:44;;;;;;;2.95;1.60;;;;;;;;;;4999636;28;20376;-67
2021/08/06 11:25:17;;;;;;;2.80;1.40;;;;;;;;;;4998941;28;20433;-66
2021/08/06 11:27:46;;;;;;;2.67;1.48;;;;;;;;;;4997060;28;20015;-66
2021/08/06 11:30:18;;;;;;;3.08;1.42;;;;;;;;;;4996505;28;20091;-65
2021/08/06 11:32:53;;;;;;;2.20;1.50;;;;;;;;;;5008860;28;20076;-67
2021/08/06 11:35:21;;;;;;;2.55;1.40;;;;;;;;;;5004568;28;20117;-66
2021/08/06 11:37:50;;;;;;;3.20;1.98;;;;;;;;;;5007406;28;20081;-67
2021/08/06 11:40:18;;;;;;;2.58;1.30;;;;;;;;;;4995763;28;20027;-66
2021/08/06 11:42:46;;;;;;;1.77;1.40;;;;;;;;;;5000419;28;20120;-67
2021/08/06 11:45:14;;;;;;;1.75;1.20;;;;;;;;;;5001320;28;20104;-66
2021/08/06 11:47:46;;;;;;;2.45;1.20;;;;;;;;;;5001869;28;20480;-67
2021/08/06 11:50:15;;;;;;;3.38;1.35;;;;;;;;;;4998401;28;20026;-66
2021/08/06 11:52:46;;;;;;;4.43;1.63;;;;;;;;;;4999060;28;20467;-67
2021/08/06 11:55:21;;;;;;;2.42;1.35;;;;;;;;;;4999747;28;20034;-67
2021/08/06 11:57:55;;;;;;;3.03;1.50;;;;;;;;;;4999898;28;20076;-66
2021/08/06 12:00:23;;;;;;;2.00;1.55;;;;;;;;;;5004978;28;20065;-68
2021/08/06 12:03:07;;;;;;;3.10;1.33;;;;;;;;;;5008093;28;20075;-67
2021/08/06 12:05:35;;;;;;;5.38;1.73;;;;;;;;;;4987972;28;20083;-67
2021/08/06 12:08:14;;;;;;;2.40;1.45;;;;;;;;;;5009393;28;20022;-67
2021/08/06 12:10:42;;;;;;;4.78;1.95;;;;;;;;;;4989275;28;20021;-66
2021/08/06 12:13:13;;;;;;;3.65;1.50;;;;;;;;;;5003701;28;20033;-66
2021/08/06 12:15:40;;;;;;;4.15;2.33;;;;;;;;;;4999401;28;20035;-67
2021/08/06 12:18:15;;;;;;;4.93;1.55;;;;;;;;;;4998402;28;20014;-67
2021/08/06 12:20:44;;;;;;;6.13;1.83;;;;;;;;;;5004394;28;20099;-66
2021/08/06 12:23:11;;;;;;;2.63;1.60;;;;;;;;;;5003498;28;20105;-67
2021/08/06 12:25:39;;;;;;;3.75;1.55;;;;;;;;;;5000294;28;20025;-68
2021/08/06 12:28:06;;;;;;;2.13;1.60;;;;;;;;;;5010387;28;20029;-67
2021/08/06 12:30:34;;;;;;;2.08;1.60;;;;;;;;;;5002152;28;20027;-68
2021/08/06 12:33:01;;;;;;;2.75;1.60;;;;;;;;;;4988222;28;20027;-67
2021/08/06 12:35:28;;;;;;;2.38;1.48;;;;;;;;;;5012366;28;20399;-67
2021/08/06 12:37:56;;;;;;;2.90;1.80;;;;;;;;;;5007380;28;20496;-67
2021/08/06 12:40:23;;;;;;;3.00;1.80;;;;;;;;;;5008447;28;20101;-68
2021/08/06 12:42:50;;;;;;;5.18;1.70;;;;;;;;;;4995075;28;20572;-67
2021/08/06 12:45:17;;;;;;;3.15;1.90;;;;;;;;;;5004470;28;20065;-67
2021/08/06 12:47:52;;;;;;;2.65;1.80;;;;;;;;;;4978766;28;20352;-69
2021/08/06 12:50:30;;;;;;;2.80;1.90;;;;;;;;;;5005457;28;20102;-66
2021/08/06 12:53:26;;;;;;;3.03;1.42;;;;;;;;;;5007367;28;20109;-67
2021/08/06 12:56:05;;;;;;;5.53;1.27;;;;;;;;;;5002104;28;20117;-67
2021/08/06 12:58:33;;;;;;;4.45;1.35;;;;;;;;;;5002532;28;20023;-68
2021/08/06 13:01:01;;;;;;;2.40;1.63;;;;;;;;;;5004343;28;20037;-68
2021/08/06 13:03:29;;;;;;;2.55;1.40;;;;;;;;;;4999543;28;20110;-67
2021/08/06 13:05:58;;;;;;;2.53;1.75;;;;;;;;;;4999593;28;20479;-67
2021/08/06 13:08:52;;;;;;;1.85;1.40;;;;;;;;;;5001272;28;20027;-67
2021/08/06 13:11:19;;;;;;;2.53;1.52;;;;;;;;;;5001739;28;20398;-68
2021/08/06 13:13:48;;;;;;;7.88;1.60;;;;;;;;;;5009236;28;20025;-67
2021/08/06 13:16:19;;;;;;;1.83;1.20;;;;;;;;;;4996870;28;20553;-68
2021/08/06 13:18:48;;;;;;;3.05;1.10;;;;;;;;;;5006019;28;20423;-68
2021/08/06 13:21:16;;;;;;;2.25;1.50;;;;;;;;;;5000460;28;20386;-67
2021/08/06 13:23:43;;;;;;;3.20;1.13;;;;;;;;;;4994917;28;20115;-67
2021/08/06 13:26:10;;;;;;;2.00;0.90;;;;;;;;;;4990438;28;20070;-67
2021/08/06 13:28:38;;;;;;;2.33;1.23;;;;;;;;;;4994144;28;20026;-67
2021/08/06 13:31:05;;;;;;;1.90;1.10;;;;;;;;;;4994432;28;20439;-66
2021/08/06 13:33:34;;;;;;;2.55;1.33;;;;;;;;;;4998384;28;20539;-66
2021/08/06 13:36:01;;;;;;;2.25;1.40;;;;;;;;;;5004336;28;20149;-66
2021/08/06 13:38:28;;;;;;;1.45;1.23;;;;;;;;;;4995769;28;20029;-66
2021/08/06 13:40:57;;;;;;;1.77;1.02;;;;;;;;;;4999450;28;20615;-67
2021/08/06 13:43:24;;;;;;;3.10;1.30;;;;;;;;;;4999289;28;20038;-67
2021/08/06 13:45:51;;;;;;;3.42;1.75;;;;;;;;;;4999161;28;20030;-67
2021/08/06 13:48:20;;;;;;;2.28;1.35;;;;;;;;;;4999176;28;20026;-67
2021/08/06 13:50:47;;;;;;;2.17;1.35;;;;;;;;;;5004381;28;20068;-67
2021/08/06 13:53:14;;;;;;;1.75;1.20;;;;;;;;;;4983692;28;20133;-67
2021/08/06 13:55:42;;;;;;;2.90;1.10;;;;;;;;;;5007860;28;20122;-68
2021/08/06 13:58:09;;;;;;;2.95;1.42;;;;;;;;;;4997744;28;20553;-67
2021/08/06 14:00:36;;;;;;;3.08;1.30;;;;;;;;;;5001978;28;20034;-67
2021/08/06 14:03:04;;;;;;;2.10;1.13;;;;;;;;;;5003972;28;20495;-66
2021/08/06 14:05:31;;;;;;;3.28;1.48;;;;;;;;;;4999815;28;20031;-67
2021/08/06 14:07:58;;;;;;;1.83;1.33;;;;;;;;;;5003307;28;20022;-67
2021/08/06 14:10:25;;;;;;;2.72;1.42;;;;;;;;;;4997940;28;20716;-67
2021/08/06 14:12:52;;;;;;;1.50;1.00;;;;;;;;;;4997994;28;20109;-67
2021/08/06 14:15:19;;;;;;;2.60;1.40;;;;;;;;;;4996631;28;20116;-66
2021/08/06 14:17:51;;;;;;;3.30;1.33;;;;;;;;;;4996932;28;21855;-67
2021/08/06 14:20:18;;;;;;;4.30;1.27;;;;;;;;;;5005407;28;20073;-67
2021/08/06 14:22:45;;;;;;;3.47;1.10;;;;;;;;;;4992927;28;20022;-67
2021/08/06 14:25:12;;;;;;;4.07;1.85;;;;;;;;;;5000524;28;20032;-67
2021/08/06 14:27:39;;;;;;;2.67;1.02;;;;;;;;;;5004575;28;20024;-67
2021/08/06 14:30:07;;;;;;;2.22;1.05;;;;;;;;;;5001819;28;20025;-67
2021/08/06 14:32:34;;;;;;;3.63;1.20;;;;;;;;;;4999618;28;20035;-67
2021/08/06 14:35:01;;;;;;;2.78;1.08;;;;;;;;;;4998231;28;20030;-67
2021/08/06 14:37:28;;;;;;;2.70;1.08;;;;;;;;;;5000059;28;20033;-67
2021/08/06 14:39:55;;;;;;;2.00;1.30;;;;;;;;;;5002133;28;20065;-66
2021/08/06 14:42:22;;;;;;;2.97;1.10;;;;;;;;;;5002090;28;20048;-68
2021/08/06 14:44:52;;;;;;;2.13;1.45;;;;;;;;;;4995436;28;20065;-67
2021/08/06 14:47:19;;;;;;;1.52;1.10;;;;;;;;;;4988323;28;20369;-67
2021/08/06 14:49:46;;;;;;;3.80;1.40;;;;;;;;;;4996809;28;20023;-68
2021/08/06 14:52:13;;;;;;;3.72;1.17;;;;;;;;;;5010712;28;20026;-67